メインページ
METAR-TAF:

METAR-TAF

空港 :

マル・デル・プラタ, アルゼンチン

緯度: 37-56S, 経度: 057-35W, 海抜: 18m

現時点の気象観測

当レポートは41分前の05:00(UTC)に作成
北/北東の風 12kt
気温 13°C
湿度 77%
気圧 1013 hPa
視程10km以上
1,500メートル以下は雲なし、積乱雲なし

METAR: SAZM 170500Z 02012KT CAVOK 13/09 Q1013

時間: 02:41 (05:41 UTC)

予報

当レポートは6時間41分前の23:00(UTC)に作成
予報は17日の 00時(UTC)から 17日の 24時(UTC)まで有効
北/北東の風 20kt
視程10km以上
高度3000ftの雲は散在している
17日の 00時(UTC)から 17日の 08時(UTC)まで一時的に
視程: 5000m
高度3000ftの雲はほとんどない, 塔状積雲.
高度4000ftの千切れ雲あり
にわか雨
17日の 09時(UTC)から 17日の 11時(UTC)まで徐々に
北西の風 15kt、最大25ktの突風を伴う
視程: 3000m
高度1000ftの雲は散在している
高度3000ftの雲はほとんどない, 積乱雲.
高度4500ftの曇り
激しい雷雨, 雨
17日の 17時(UTC)から 17日の 19時(UTC)まで徐々に
南西の風 20kt、最大30ktの突風を伴う
視程: 7000m
高度1500ftの雲は散在している
高度4000ftの千切れ雲あり
雨, 霧雨

TAF: SAZM 162300Z 1700/1724 03020KT 9999 SCT030 TX19/1718Z TN10/1709Z TEMPO 1700/1708 5000 SHRA FEW030TCU BKN040 BECMG 1709/1711 32015G25KT 3000 TSRA SCT010 FEW030CB OVC045 BECMG 1717/1719 23020G30KT 7000 RADZ SCT015 BKN040

4,000以上の空港の気象観測と天気予報(METAR報とTAF報)

利用可能な観測所は地図上に黄色い丸と赤い丸で示す。

丸の上にカーソルを重ねると観測所名を参照できる。

次にクリックすると気象観測と天気予報を参照できる。

マップの切り替え:黒色「×」印の緑ボタンをクリックして拡大、「-」印の緑ボタンをクリックして縮小、緑色の三角印をクリックして隣りの地図に切り替え


METAR-TAF: